Time;durP1;ratioP1;P1;durP2;ratioP2;P2;SDS_P1;SDS_P2;PMS_P1;PMS_P2;Temp;Humidity;BMP_temperature;BMP_pressure;BME280_temperature;BME280_humidity;BME280_pressure;Samples;Min_cycle;Max_cycle;Signal;HPM_P1;HPM_P2
2023/04/06 00:01:13;;;;;;;12.63;7.07;;;;;;;5.50;48.12;95805.44;6182580;23;20529;-87
2023/04/06 00:03:43;;;;;;;9.07;6.83;;;;;;;5.49;47.78;95806.38;6184191;23;20529;-88
2023/04/06 00:06:11;;;;;;;7.07;6.37;;;;;;;5.45;48.09;95806.78;6184865;23;20486;-88
2023/04/06 00:08:38;;;;;;;7.00;6.13;;;;;;;5.39;48.26;95805.59;6183354;23;20198;-88
2023/04/06 00:11:06;;;;;;;7.80;5.90;;;;;;;5.39;48.27;95802.22;6184777;23;20244;-87
2023/04/06 00:13:32;;;;;;;7.10;6.33;;;;;;;5.39;49.12;95800.47;6185703;23;20170;-88
2023/04/06 00:16:01;;;;;;;7.63;6.00;;;;;;;5.47;48.81;95807.44;6185630;23;20198;-87
2023/04/06 00:18:28;;;;;;;9.30;6.37;;;;;;;5.48;48.60;95802.22;6184927;23;20174;-89
2023/04/06 00:20:56;;;;;;;7.17;6.10;;;;;;;5.47;48.30;95797.22;6184762;23;20199;-88
2023/04/06 00:23:22;;;;;;;7.23;5.57;;;;;;;5.39;48.64;95795.38;6184337;23;20178;-88
2023/04/06 00:25:49;;;;;;;6.97;6.27;;;;;;;5.32;49.00;95796.88;6184794;23;20185;-89
2023/04/06 00:28:15;;;;;;;7.37;5.47;;;;;;;5.35;49.00;95794.06;6184855;23;20165;-88
2023/04/06 00:30:42;;;;;;;8.33;6.57;;;;;;;5.32;49.38;95796.88;6184793;23;20221;-88
2023/04/06 00:33:08;;;;;;;6.13;5.60;;;;;;;5.32;49.13;95796.88;6184994;23;20185;-88
2023/04/06 00:35:35;;;;;;;8.93;6.30;;;;;;;5.34;48.84;95801.84;6185265;23;20182;-89
2023/04/06 00:38:04;;;;;;;8.73;6.47;;;;;;;5.27;48.74;95799.03;6183736;23;20193;-89
2023/04/06 00:40:32;;;;;;;8.63;6.00;;;;;;;5.22;49.08;95798.66;6186434;23;20254;-88
2023/04/06 00:42:59;;;;;;;6.50;5.80;;;;;;;5.13;49.67;95795.19;6185652;23;20261;-89
2023/04/06 00:45:29;;;;;;;8.10;5.80;;;;;;;5.06;50.09;95795.88;6186918;23;20803;-88
2023/04/06 00:47:55;;;;;;;6.57;5.73;;;;;;;5.02;50.42;95800.44;6186299;23;20513;-88
2023/04/06 00:50:22;;;;;;;7.60;6.10;;;;;;;4.98;50.24;95793.22;6187005;23;20205;-89
2023/04/06 00:52:48;;;;;;;6.23;5.63;;;;;;;5.03;49.64;95796.13;6185881;23;20206;-88
2023/04/06 00:55:16;;;;;;;9.23;6.03;;;;;;;5.03;49.96;95799.50;6185527;23;20178;-90
2023/04/06 00:57:43;;;;;;;7.70;5.67;;;;;;;5.09;49.97;95796.41;6186424;23;20284;-87
2023/04/06 01:00:13;;;;;;;10.80;6.10;;;;;;;5.10;49.70;95800.56;6184935;23;20175;-89
2023/04/06 01:02:39;;;;;;;7.10;6.20;;;;;;;5.10;49.75;95794.66;6186001;23;20487;-88
2023/04/06 01:05:07;;;;;;;7.80;5.97;;;;;;;5.02;49.69;95795.31;6187555;23;20178;-88
2023/04/06 01:07:34;;;;;;;7.23;6.13;;;;;;;4.96;49.95;95800.19;6187690;23;20244;-86
2023/04/06 01:10:00;;;;;;;7.40;5.90;;;;;;;4.90;50.55;95805.84;6187686;23;20710;-88
2023/04/06 01:12:28;;;;;;;7.57;6.30;;;;;;;4.85;50.43;95790.94;6188303;23;20253;-88
2023/04/06 01:14:54;;;;;;;9.00;5.80;;;;;;;4.87;50.40;95799.25;6188126;23;20180;-87
2023/04/06 01:17:21;;;;;;;6.33;5.63;;;;;;;4.93;50.16;95791.06;6188405;23;20260;-88
2023/04/06 01:19:49;;;;;;;6.67;5.20;;;;;;;4.90;50.06;95791.31;6186890;23;20185;-88
2023/04/06 01:22:17;;;;;;;6.37;5.50;;;;;;;4.85;50.19;95796.84;6188570;23;20721;-88
2023/04/06 01:24:46;;;;;;;6.43;5.57;;;;;;;4.90;50.02;95787.97;6187774;23;20637;-88
2023/04/06 01:27:13;;;;;;;8.17;5.60;;;;;;;4.87;49.88;95791.59;6188221;23;20192;-87
2023/04/06 01:29:41;;;;;;;6.40;5.47;;;;;;;4.77;50.70;95788.25;6187839;23;20178;-89
2023/04/06 01:32:08;;;;;;;6.50;5.90;;;;;;;4.79;50.35;95779.53;6188332;23;20198;-88
2023/04/06 01:34:35;;;;;;;6.87;5.50;;;;;;;4.71;51.11;95784.50;6189139;23;20174;-87
2023/04/06 01:37:03;;;;;;;6.87;5.90;;;;;;;4.72;50.74;95787.84;6188732;23;20813;-88
2023/04/06 01:39:34;;;;;;;6.20;5.50;;;;;;;4.74;50.88;95786.78;6188008;23;20209;-89
2023/04/06 01:42:00;;;;;;;6.10;5.40;;;;;;;4.75;50.20;95782.50;6188556;23;20216;-88
2023/04/06 01:44:27;;;;;;;6.80;5.47;;;;;;;4.77;50.03;95780.63;6187905;23;20229;-89
2023/04/06 01:47:29;;;;;;;6.20;5.50;;;;;;;4.73;50.65;95772.44;6188986;23;20206;-89
2023/04/06 01:49:56;;;;;;;6.40;5.63;;;;;;;4.74;50.25;95768.13;6182537;23;20184;-88
2023/04/06 01:52:26;;;;;;;6.97;5.90;;;;;;;4.73;50.21;95774.16;6188635;23;20194;-89
2023/04/06 01:54:54;;;;;;;7.23;5.73;;;;;;;4.67;50.16;95775.50;6189009;23;20207;-87
2023/04/06 01:57:21;;;;;;;6.33;5.20;;;;;;;4.54;50.73;95771.63;6189236;23;20209;-89
2023/04/06 01:59:47;;;;;;;7.73;5.23;;;;;;;4.55;50.41;95765.59;6188788;23;20205;-88
2023/04/06 02:02:14;;;;;;;6.37;5.00;;;;;;;4.51;50.57;95770.16;6188647;23;20202;-90
2023/04/06 02:04:40;;;;;;;6.87;5.00;;;;;;;4.54;50.12;95777.53;6189548;23;20237;-88
2023/04/06 02:07:06;;;;;;;7.50;5.07;;;;;;;4.48;50.93;95766.13;6189900;23;20179;-88
2023/04/06 02:09:34;;;;;;;7.77;5.17;;;;;;;4.42;50.79;95781.97;6189472;23;20619;-89
2023/04/06 02:12:02;;;;;;;6.57;5.30;;;;;;;4.36;51.19;95771.50;6189029;23;20253;-88
2023/04/06 02:14:28;;;;;;;5.87;4.90;;;;;;;4.38;50.61;95772.97;6189240;23;20178;-88
2023/04/06 02:16:55;;;;;;;5.57;5.03;;;;;;;4.41;50.28;95764.25;6189355;23;20198;-89
2023/04/06 02:19:22;;;;;;;5.93;4.87;;;;;;;4.39;50.65;95768.69;6188162;23;20174;-88
2023/04/06 02:21:48;;;;;;;5.37;4.87;;;;;;;4.48;50.60;95770.41;6188473;23;20222;-87
2023/04/06 02:24:15;;;;;;;5.73;5.00;;;;;;;4.55;50.04;95765.59;6189209;23;20197;-88
2023/04/06 02:26:41;;;;;;;5.17;4.67;;;;;;;4.55;49.81;95765.59;6190009;23;20189;-89
2023/04/06 02:29:09;;;;;;;5.40;4.90;;;;;;;4.57;49.54;95767.06;6189947;23;20630;-88
2023/04/06 02:31:36;;;;;;;5.70;4.80;;;;;;;4.55;49.97;95766.41;6190673;23;20205;-88
2023/04/06 02:34:02;;;;;;;5.37;4.50;;;;;;;4.55;49.58;95768.16;6190702;23;20179;-90
2023/04/06 02:36:29;;;;;;;6.07;4.70;;;;;;;4.58;50.05;95758.47;6190700;23;20749;-87
2023/04/06 02:38:56;;;;;;;5.43;4.73;;;;;;;4.60;49.72;95760.91;6189517;23;20178;-87
2023/04/06 02:41:22;;;;;;;7.23;4.60;;;;;;;4.60;49.31;95760.91;6189633;23;20478;-89
2023/04/06 02:43:49;;;;;;;5.57;4.97;;;;;;;4.61;49.89;95765.88;6189393;23;20179;-88
2023/04/06 02:46:20;;;;;;;4.73;4.20;;;;;;;4.65;49.62;95762.09;6189413;23;20206;-90
2023/04/06 02:48:46;;;;;;;6.80;4.73;;;;;;;4.66;49.32;95757.78;6189316;23;20174;-88
2023/04/06 02:51:12;;;;;;;7.33;5.20;;;;;;;4.67;49.29;95754.31;6186684;23;20576;-89
2023/04/06 02:53:39;;;;;;;6.00;5.27;;;;;;;4.60;49.52;95754.06;6185372;23;20178;-87
2023/04/06 02:56:16;;;;;;;5.87;4.73;;;;;;;4.59;50.14;95759.28;6186095;23;20184;-89
2023/04/06 02:58:42;;;;;;;7.23;4.90;;;;;;;4.57;49.82;95745.88;6185410;23;20237;-89
2023/04/06 03:01:09;;;;;;;6.23;4.73;;;;;;;4.53;50.18;95752.16;6184205;23;20202;-89
2023/04/06 03:03:40;;;;;;;5.53;4.97;;;;;;;4.43;50.36;95752.16;6185976;23;20174;-88
2023/04/06 03:06:07;;;;;;;6.10;4.60;;;;;;;4.42;50.68;95755.69;6185655;23;20178;-88
2023/04/06 03:08:33;;;;;;;5.80;5.20;;;;;;;4.39;50.68;95766.94;6186302;23;20174;-87
2023/04/06 03:11:00;;;;;;;7.17;5.03;;;;;;;4.37;50.23;95758.63;6186122;23;20206;-87
2023/04/06 03:13:26;;;;;;;7.80;5.00;;;;;;;4.32;50.48;95760.75;6185798;23;20241;-87
2023/04/06 03:15:52;;;;;;;6.13;5.43;;;;;;;4.35;50.73;95764.78;6185664;23;20185;-87
2023/04/06 03:18:22;;;;;;;5.40;4.90;;;;;;;4.43;50.03;95758.06;6185731;23;20225;-87
2023/04/06 03:20:50;;;;;;;6.20;5.10;;;;;;;4.35;50.47;95754.59;6184878;23;20693;-87
2023/04/06 03:23:17;;;;;;;6.13;5.17;;;;;;;4.31;50.33;95754.06;6186517;23;20178;-88
2023/04/06 03:25:43;;;;;;;5.23;4.73;;;;;;;4.24;50.90;95754.72;6185117;23;20178;-88
2023/04/06 03:28:10;;;;;;;5.27;4.77;;;;;;;4.17;50.78;95764.66;6185308;23;20198;-88
2023/04/06 03:30:36;;;;;;;6.93;5.23;;;;;;;4.17;50.56;95757.00;6185119;23;20201;-88
2023/04/06 03:33:03;;;;;;;6.50;5.23;;;;;;;4.16;50.80;95763.03;6184461;23;20175;-89
2023/04/06 03:35:29;;;;;;;5.90;5.20;;;;;;;4.13;51.14;95758.19;6182411;23;20257;-88
2023/04/06 03:37:57;;;;;;;5.97;5.07;;;;;;;4.06;51.45;95759.66;6184757;23;20221;-87
2023/04/06 03:40:23;;;;;;;7.17;5.47;;;;;;;3.99;52.01;95761.13;6185587;23;20205;-88
2023/04/06 03:42:50;;;;;;;8.43;5.80;;;;;;;4.03;51.90;95772.69;6184864;23;20195;-88
2023/04/06 03:45:17;;;;;;;7.33;5.80;;;;;;;4.07;51.61;95766.34;6186091;23;20186;-89
2023/04/06 03:47:44;;;;;;;7.13;5.20;;;;;;;4.05;52.08;95760.59;6185766;23;20648;-89
2023/04/06 03:50:11;;;;;;;10.47;5.90;;;;;;;4.10;51.88;95772.00;6185769;23;20450;-87
2023/04/06 03:52:38;;;;;;;6.00;5.23;;;;;;;4.18;51.53;95771.34;6186292;23;20174;-87
2023/04/06 03:55:07;;;;;;;8.07;5.80;;;;;;;4.28;51.02;95772.16;6186037;23;20181;-90
2023/04/06 03:57:34;;;;;;;6.93;5.47;;;;;;;4.25;51.75;95774.16;6185870;23;20201;-88
2023/04/06 04:00:00;;;;;;;8.90;5.80;;;;;;;4.20;51.22;95771.22;6184335;23;20174;-88
2023/04/06 04:02:26;;;;;;;8.73;6.03;;;;;;;4.20;51.47;95781.41;6183649;23;20182;-88
2023/04/06 04:04:53;;;;;;;7.27;5.77;;;;;;;4.22;51.37;95780.34;6186236;23;20367;-87
2023/04/06 04:07:19;;;;;;;9.43;5.77;;;;;;;4.24;51.48;95778.44;6184489;23;20174;-87
2023/04/06 04:09:46;;;;;;;8.90;5.33;;;;;;;4.24;51.76;95781.00;6184526;23;20178;-87
2023/04/06 04:12:14;;;;;;;6.23;5.20;;;;;;;4.20;51.68;95782.22;6184612;23;20703;-88
2023/04/06 04:14:41;;;;;;;6.93;5.53;;;;;;;4.22;51.33;95785.44;6184755;23;20274;-89
2023/04/06 04:17:07;;;;;;;6.57;5.63;;;;;;;4.21;51.71;95783.03;6183832;23;20178;-89
2023/04/06 04:19:33;;;;;;;6.83;5.57;;;;;;;4.11;52.24;95785.53;6185304;23;20240;-89
2023/04/06 04:22:00;;;;;;;8.20;5.67;;;;;;;4.17;52.02;95790.13;6184703;23;20194;-88
2023/04/06 04:24:26;;;;;;;8.00;6.07;;;;;;;4.13;51.44;95779.38;6185580;23;20174;-87
2023/04/06 04:26:52;;;;;;;7.90;5.80;;;;;;;4.19;51.33;95787.44;6184182;23;20197;-87
2023/04/06 04:29:22;;;;;;;6.10;5.50;;;;;;;4.23;51.69;95794.69;6183326;23;20174;-87
2023/04/06 04:31:48;;;;;;;7.47;6.07;;;;;;;4.21;51.36;95793.22;6184033;23;20198;-88
2023/04/06 04:34:15;;;;;;;10.27;5.43;;;;;;;4.09;51.93;95800.97;6184382;23;20184;-87
2023/04/06 04:36:41;;;;;;;6.07;5.33;;;;;;;4.05;51.80;95791.97;6183487;23;20676;-89
2023/04/06 04:39:08;;;;;;;5.23;4.73;;;;;;;4.06;51.90;95792.78;6185543;23;20194;-89
2023/04/06 04:41:35;;;;;;;5.03;4.53;;;;;;;4.13;51.47;95791.31;6186869;23;20268;-89
2023/04/06 04:44:01;;;;;;;5.83;5.23;;;;;;;4.08;51.97;95796.81;6184352;23;20236;-87
2023/04/06 04:46:29;;;;;;;6.53;5.90;;;;;;;3.98;52.32;95803.63;6185188;23;20178;-88
2023/04/06 04:48:55;;;;;;;7.77;5.80;;;;;;;4.00;52.14;95795.84;6185550;23;20552;-87
2023/04/06 04:51:32;;;;;;;7.00;5.53;;;;;;;4.02;52.29;95794.00;6186041;23;20205;-89
2023/04/06 04:53:58;;;;;;;7.70;5.60;;;;;;;4.07;51.76;95791.84;6188558;23;20586;-88
2023/04/06 04:56:25;;;;;;;6.03;5.30;;;;;;;4.09;52.06;95783.13;6186717;23;20178;-89
2023/04/06 04:58:51;;;;;;;7.57;5.40;;;;;;;4.05;51.88;95797.06;6183755;23;20198;-88
2023/04/06 05:01:18;;;;;;;9.23;6.30;;;;;;;3.97;52.15;95794.38;6185121;23;20580;-86
2023/04/06 05:03:50;;;;;;;9.83;5.83;;;;;;;3.88;52.92;95797.69;6185839;23;20221;-87
2023/04/06 05:06:18;;;;;;;6.97;5.90;;;;;;;3.81;53.42;95794.88;6185371;23;20159;-87
2023/04/06 05:08:45;;;;;;;8.17;5.93;;;;;;;3.97;52.78;95796.94;6186163;23;20228;-86
2023/04/06 05:11:12;;;;;;;10.43;6.23;;;;;;;4.05;52.52;95786.88;6184958;23;20201;-87
2023/04/06 05:13:38;;;;;;;7.00;6.30;;;;;;;4.08;52.47;95786.63;6184418;23;20174;-89
2023/04/06 05:16:05;;;;;;;6.40;5.67;;;;;;;4.06;52.42;95795.31;6185859;23;20209;-87
2023/04/06 05:18:31;;;;;;;6.07;5.47;;;;;;;4.08;52.30;95801.91;6183917;23;20197;-88
2023/04/06 05:20:59;;;;;;;6.80;6.03;;;;;;;4.16;51.96;95798.69;6184202;23;20201;-85
2023/04/06 05:23:26;;;;;;;6.27;5.67;;;;;;;4.23;51.82;95796.44;6185557;23;20513;-86
2023/04/06 05:25:52;;;;;;;7.77;5.43;;;;;;;4.33;52.03;95799.78;6186396;23;20174;-88
2023/04/06 05:28:19;;;;;;;8.33;5.93;;;;;;;4.35;51.62;95796.19;6185143;23;20401;-86
2023/04/06 05:30:46;;;;;;;9.37;6.10;;;;;;;4.38;52.20;95795.13;6186354;23;20228;-88
2023/04/06 05:33:13;;;;;;;6.43;5.70;;;;;;;4.45;51.41;95802.06;6185470;23;20206;-87
2023/04/06 05:35:40;;;;;;;7.17;6.17;;;;;;;4.45;51.92;95803.81;6186204;23;20174;-86
2023/04/06 05:38:08;;;;;;;14.50;6.30;;;;;;;4.47;52.36;95810.41;6186189;23;20199;-88
2023/04/06 05:40:35;;;;;;;6.93;6.10;;;;;;;4.54;51.73;95797.13;6184625;23;20256;-87
2023/04/06 05:43:02;;;;;;;8.47;6.10;;;;;;;4.57;51.52;95799.41;6184276;23;20186;-86
2023/04/06 05:45:31;;;;;;;19.57;14.40;;;;;;;4.66;51.12;95798.59;6184716;23;20348;-87
2023/04/06 05:47:57;;;;;;;15.80;11.40;;;;;;;4.60;55.57;95802.50;6183159;23;20186;-87
2023/04/06 05:50:24;;;;;;;7.40;5.83;;;;;;;4.62;51.51;95795.50;6184498;23;20198;-86
2023/04/06 05:52:50;;;;;;;6.20;5.57;;;;;;;4.65;51.06;95797.78;6184198;23;20178;-87
2023/04/06 05:55:18;;;;;;;7.30;5.60;;;;;;;4.69;50.98;95808.53;6185270;23;20178;-87
2023/04/06 05:57:44;;;;;;;6.93;5.67;;;;;;;4.76;50.88;95809.59;6183374;23;20205;-86
2023/04/06 06:00:12;;;;;;;10.20;6.10;;;;;;;4.73;50.30;95809.88;6183833;23;20229;-87
2023/04/06 06:02:39;;;;;;;6.13;5.50;;;;;;;4.75;50.53;95813.09;6183593;23;20178;-87
2023/04/06 06:05:05;;;;;;;7.33;5.43;;;;;;;4.87;50.25;95804.34;6184457;23;20184;-87
2023/04/06 06:07:34;;;;;;;5.77;5.27;;;;;;;4.88;50.30;95808.50;6184057;23;20178;-87
2023/04/06 06:10:00;;;;;;;9.27;5.83;;;;;;;4.90;50.33;95801.53;6183922;23;20174;-87
2023/04/06 06:12:28;;;;;;;8.30;6.13;;;;;;;4.92;50.50;95803.94;6183608;23;20266;-87
2023/04/06 06:14:55;;;;;;;6.60;5.67;;;;;;;4.96;50.02;95805.28;6183961;23;20181;-87
2023/04/06 06:17:21;;;;;;;7.17;5.90;;;;;;;4.98;50.12;95804.22;6183893;23;20173;-88
2023/04/06 06:19:48;;;;;;;7.77;5.60;;;;;;;5.05;49.85;95802.72;6184366;23;20212;-87
2023/04/06 06:22:14;;;;;;;8.93;6.50;;;;;;;5.12;49.38;95808.88;6184980;23;20208;-88
2023/04/06 06:24:47;;;;;;;9.00;6.33;;;;;;;5.23;49.42;95802.81;6186244;23;20181;-89
2023/04/06 06:27:13;;;;;;;6.40;5.80;;;;;;;5.34;49.49;95807.78;6190901;23;20186;-89
2023/04/06 06:29:41;;;;;;;8.43;6.17;;;;;;;5.39;48.93;95805.59;6187197;23;20186;-88
2023/04/06 06:32:09;;;;;;;8.73;5.77;;;;;;;5.51;49.31;95808.78;6202487;23;20209;-86
2023/04/06 06:34:36;;;;;;;6.33;5.67;;;;;;;5.67;49.04;95805.63;6205667;23;20222;-87
2023/04/06 06:37:21;;;;;;;7.13;6.43;;;;;;;5.85;49.12;95804.75;6204443;23;20202;-86
2023/04/06 06:39:54;;;;;;;8.73;7.70;;;;;;;5.96;47.97;95801.25;6192350;23;20189;-87
2023/04/06 06:42:20;;;;;;;10.60;7.33;;;;;;;6.12;47.93;95808.28;6205377;23;20218;-86
2023/04/06 06:44:48;;;;;;;7.37;6.17;;;;;;;6.16;47.57;95807.81;6188106;23;20241;-88
2023/04/06 06:47:15;;;;;;;7.47;6.20;;;;;;;6.30;47.32;95806.56;6195796;23;20181;-87
2023/04/06 06:49:41;;;;;;;8.47;6.10;;;;;;;6.50;47.24;95808.03;6203523;23;20178;-86
2023/04/06 06:52:08;;;;;;;9.03;6.30;;;;;;;6.57;46.99;95803.09;6203637;23;20198;-87
2023/04/06 06:54:35;;;;;;;8.23;6.43;;;;;;;6.73;46.82;95805.03;6198953;23;20248;-88
2023/04/06 06:57:01;;;;;;;8.87;7.43;;;;;;;6.93;46.43;95799.56;6197754;23;20178;-86
2023/04/06 06:59:28;;;;;;;10.47;6.80;;;;;;;7.10;45.96;95810.75;6194039;23;20258;-86
2023/04/06 07:01:56;;;;;;;9.43;6.73;;;;;;;7.33;45.84;95812.81;6195425;23;20194;-87
2023/04/06 07:04:23;;;;;;;9.00;6.30;;;;;;;7.24;44.87;95814.53;6194387;23;20177;-86
2023/04/06 07:06:50;;;;;;;8.17;6.80;;;;;;;7.28;45.14;95814.09;6184930;23;20182;-87
2023/04/06 07:09:16;;;;;;;9.70;6.60;;;;;;;7.37;45.42;95814.13;6195203;23;20174;-86
2023/04/06 07:11:43;;;;;;;10.00;7.00;;;;;;;7.40;45.07;95814.63;6204093;23;20202;-86
2023/04/06 07:14:11;;;;;;;9.53;6.80;;;;;;;7.39;44.93;95812.22;6203846;23;20166;-88
2023/04/06 07:16:38;;;;;;;8.87;6.17;;;;;;;7.59;44.73;95821.28;6203173;23;20166;-87
2023/04/06 07:19:06;;;;;;;9.33;6.67;;;;;;;7.62;43.32;95815.88;6200847;23;20197;-87
2023/04/06 07:21:33;;;;;;;7.23;6.53;;;;;;;7.58;43.35;95817.13;6201986;23;20218;-87
2023/04/06 07:23:59;;;;;;;10.33;6.90;;;;;;;7.72;43.83;95821.69;6199587;23;20185;-89
2023/04/06 07:26:26;;;;;;;7.77;6.97;;;;;;;7.66;43.35;95811.25;6197712;23;20186;-87
2023/04/06 07:28:53;;;;;;;8.67;6.50;;;;;;;7.70;43.86;95817.69;6198967;23;20230;-86
2023/04/06 07:31:20;;;;;;;10.30;7.43;;;;;;;7.81;43.72;95819.97;6196549;23;20218;-85
2023/04/06 07:33:49;;;;;;;11.50;7.57;;;;;;;7.78;43.04;95821.06;6199340;23;20856;-87
2023/04/06 07:36:18;;;;;;;8.00;7.20;;;;;;;8.27;43.09;95824.59;6201945;23;20174;-86
2023/04/06 07:38:45;;;;;;;7.77;6.30;;;;;;;8.55;42.20;95822.63;6198259;23;20233;-88
2023/04/06 07:41:12;;;;;;;13.13;7.30;;;;;;;8.66;42.74;95811.25;6197800;23;20538;-87
2023/04/06 07:43:39;;;;;;;11.73;6.77;;;;;;;8.70;42.45;95822.81;6198159;23;20205;-86
2023/04/06 07:46:05;;;;;;;10.07;7.23;;;;;;;8.92;41.19;95817.03;6199296;23;20230;-87
2023/04/06 07:48:32;;;;;;;11.03;8.30;;;;;;;9.27;41.14;95815.91;6200896;23;20174;-89
2023/04/06 07:51:03;;;;;;;8.80;7.07;;;;;;;9.55;39.08;95810.41;6200371;23;20250;-87
2023/04/06 07:53:31;;;;;;;9.07;6.53;;;;;;;9.90;38.40;95807.41;6201420;23;20174;-86
2023/04/06 07:55:59;;;;;;;7.07;6.27;;;;;;;10.20;37.87;95805.06;6204510;23;20201;-87
2023/04/06 07:58:25;;;;;;;8.83;6.40;;;;;;;10.34;37.25;95804.34;6200845;23;20375;-89
2023/04/06 08:00:55;;;;;;;10.03;6.43;;;;;;;10.34;36.50;95809.50;6186315;23;20198;-87
2023/04/06 08:03:25;;;;;;;8.67;6.10;;;;;;;10.33;37.04;95806.13;6188783;23;20186;-87
2023/04/06 08:05:51;;;;;;;7.57;6.13;;;;;;;10.21;36.79;95816.94;6189841;23;20182;-88
2023/04/06 08:08:18;;;;;;;7.53;6.17;;;;;;;9.90;36.62;95811.75;6187379;23;20182;-89
2023/04/06 08:10:47;;;;;;;7.27;5.63;;;;;;;9.66;37.55;95807.47;6187474;23;20205;-88
2023/04/06 08:13:13;;;;;;;7.13;6.23;;;;;;;9.79;37.80;95812.13;6185834;23;20498;-89
2023/04/06 08:15:40;;;;;;;7.37;6.43;;;;;;;9.69;37.21;95809.72;6186235;23;20189;-87
2023/04/06 08:18:06;;;;;;;6.70;5.83;;;;;;;9.70;37.56;95809.56;6186332;23;20178;-88
2023/04/06 08:20:33;;;;;;;7.07;5.73;;;;;;;9.78;37.51;95815.66;6184981;23;20252;-87
2023/04/06 08:22:59;;;;;;;8.80;6.63;;;;;;;10.05;36.96;95822.94;6186214;23;20178;-88
2023/04/06 08:25:27;;;;;;;7.93;5.73;;;;;;;10.43;36.65;95811.03;6185591;23;20198;-87
2023/04/06 08:27:57;;;;;;;8.03;6.43;;;;;;;10.71;36.65;95812.16;6184786;23;20189;-89
2023/04/06 08:30:26;;;;;;;8.57;6.70;;;;;;;10.68;35.96;95809.13;6186248;23;20256;-89
2023/04/06 08:32:53;;;;;;;10.10;6.17;;;;;;;11.00;35.76;95803.72;6186262;23;20178;-87
2023/04/06 08:35:21;;;;;;;7.93;6.23;;;;;;;11.24;34.57;95807.06;6185413;23;20192;-89
2023/04/06 08:37:48;;;;;;;40.20;30.80;;;;;;;11.37;34.53;95810.63;6185485;23;20174;-88
2023/04/06 08:40:15;;;;;;;8.93;8.00;;;;;;;11.51;33.89;95811.66;6188188;23;20206;-87
2023/04/06 08:42:50;;;;;;;10.37;7.10;;;;;;;11.48;34.22;95804.25;6186713;23;20205;-88
2023/04/06 08:45:21;;;;;;;7.33;6.00;;;;;;;11.79;34.49;95806.69;6185962;23;20536;-88
2023/04/06 08:47:47;;;;;;;6.77;6.07;;;;;;;12.15;32.95;95806.75;6186559;23;20159;-88
2023/04/06 08:50:17;;;;;;;7.03;6.33;;;;;;;12.09;33.25;95808.28;6186055;23;20174;-87
2023/04/06 08:52:44;;;;;;;6.90;6.20;;;;;;;12.43;32.70;95799.94;6185567;23;20260;-87
2023/04/06 08:55:15;;;;;;;7.10;6.33;;;;;;;12.24;31.42;95803.09;6186474;23;20257;-87
2023/04/06 08:57:42;;;;;;;7.47;6.63;;;;;;;12.27;31.38;95805.31;6185002;23;20557;-89
2023/04/06 09:00:11;;;;;;;9.60;6.07;;;;;;;12.58;32.12;95799.91;6185347;23;20197;-88
2023/04/06 09:02:41;;;;;;;6.90;6.20;;;;;;;12.70;32.20;95795.81;6185126;23;20174;-87
2023/04/06 09:05:12;;;;;;;6.77;5.93;;;;;;;12.79;30.55;95804.28;6183986;23;20174;-88
2023/04/06 09:07:43;;;;;;;6.50;5.90;;;;;;;12.65;30.26;95798.19;6184857;23;20233;-88
2023/04/06 09:10:10;;;;;;;7.30;6.30;;;;;;;12.55;30.39;95794.28;6185176;23;20159;-89
2023/04/06 09:12:36;;;;;;;6.80;6.20;;;;;;;12.86;29.64;95799.19;6184583;23;20179;-88
2023/04/06 09:15:03;;;;;;;7.07;6.37;;;;;;;13.15;29.74;95786.13;6184789;23;20179;-88
2023/04/06 09:17:33;;;;;;;6.67;5.97;;;;;;;13.18;29.31;95796.09;6185676;23;20175;-89
2023/04/06 09:20:06;;;;;;;8.17;6.53;;;;;;;13.46;29.37;95788.34;6184134;23;20244;-88
2023/04/06 09:22:39;;;;;;;7.43;6.13;;;;;;;13.64;29.53;95786.06;6185711;23;20198;-87
2023/04/06 09:25:07;;;;;;;10.93;9.27;;;;;;;13.77;29.76;95790.50;6184859;23;20189;-88
2023/04/06 09:27:36;;;;;;;8.47;6.90;;;;;;;13.89;29.50;95788.97;6184876;23;20186;-87
2023/04/06 09:30:13;;;;;;;7.67;6.07;;;;;;;14.15;29.14;95788.31;6185130;23;20508;-87
2023/04/06 09:32:48;;;;;;;7.60;6.53;;;;;;;14.01;28.20;95781.47;6185790;23;20761;-87
2023/04/06 09:35:17;;;;;;;8.60;6.90;;;;;;;13.61;29.17;95783.88;6185483;23;20561;-88
2023/04/06 09:37:44;;;;;;;7.10;6.40;;;;;;;13.62;29.71;95784.66;6185501;23;20189;-88
2023/04/06 09:40:13;;;;;;;7.37;6.63;;;;;;;13.29;29.52;95792.97;6185871;23;20198;-87
2023/04/06 09:42:42;;;;;;;8.30;6.90;;;;;;;13.27;29.61;95787.22;6185002;23;20178;-87
2023/04/06 09:45:10;;;;;;;6.77;6.07;;;;;;;13.61;30.15;95780.47;6185892;23;20629;-87
2023/04/06 09:47:39;;;;;;;8.60;6.57;;;;;;;13.77;31.10;95780.16;6185817;23;20174;-88
2023/04/06 09:50:12;;;;;;;7.33;6.57;;;;;;;13.90;28.85;95780.22;6184985;23;20174;-87
2023/04/06 09:52:43;;;;;;;8.57;6.30;;;;;;;13.50;28.56;95776.59;6184536;23;20692;-88
2023/04/06 09:55:11;;;;;;;6.80;6.20;;;;;;;13.11;30.16;95777.91;6185251;23;20190;-88
2023/04/06 09:57:46;;;;;;;6.60;6.00;;;;;;;13.38;29.36;95778.13;6184376;23;20241;-87
2023/04/06 10:00:19;;;;;;;9.17;6.90;;;;;;;13.49;30.00;95775.00;6184844;23;20268;-87
2023/04/06 10:02:51;;;;;;;7.30;6.60;;;;;;;13.69;29.20;95768.16;6183620;23;20216;-88
2023/04/06 10:05:25;;;;;;;7.70;6.20;;;;;;;13.38;29.38;95771.19;6185456;23;20162;-88
2023/04/06 10:07:58;;;;;;;7.00;6.23;;;;;;;13.21;30.12;95766.47;6185017;23;20244;-87
2023/04/06 10:10:25;;;;;;;7.53;6.83;;;;;;;12.85;29.94;95761.41;6184927;23;20253;-87
2023/04/06 10:12:51;;;;;;;6.90;6.20;;;;;;;13.14;30.59;95762.03;6185355;23;20185;-86
2023/04/06 10:15:18;;;;;;;6.90;6.20;;;;;;;13.65;29.91;95768.75;6186190;23;20197;-87
2023/04/06 10:17:53;;;;;;;7.67;6.87;;;;;;;13.88;28.81;95761.50;6185812;23;20630;-87
2023/04/06 10:20:29;;;;;;;7.27;6.57;;;;;;;14.27;28.20;95757.44;6184687;23;20668;-88
2023/04/06 10:23:02;;;;;;;7.27;6.63;;;;;;;14.62;28.39;95751.22;6186459;23;20237;-87
2023/04/06 10:25:32;;;;;;;6.77;6.13;;;;;;;14.65;27.66;95757.75;6187132;23;20169;-87
2023/04/06 10:28:02;;;;;;;7.10;6.40;;;;;;;14.59;27.74;95754.19;6187154;23;20162;-88
2023/04/06 10:30:34;;;;;;;8.03;6.83;;;;;;;14.57;28.16;95747.59;6186691;23;20178;-88
2023/04/06 10:33:14;;;;;;;6.85;6.22;;;;;;;14.72;27.75;95743.03;6188405;23;20225;-87
2023/04/06 10:35:44;;;;;;;7.25;6.20;;;;;;;14.94;28.03;95741.84;6188117;23;20189;-87
2023/04/06 10:38:13;;;;;;;6.87;6.17;;;;;;;15.09;28.62;95742.44;6187360;23;20175;-86
2023/04/06 10:40:44;;;;;;;6.82;6.20;;;;;;;15.31;27.90;95748.22;6188081;23;20406;-87
2023/04/06 10:43:12;;;;;;;8.48;6.97;;;;;;;15.39;27.98;95742.03;6188230;23;20269;-87
2023/04/06 10:45:40;;;;;;;7.30;6.60;;;;;;;15.49;27.29;95737.22;6186359;23;20178;-87
2023/04/06 10:48:17;;;;;;;7.75;6.63;;;;;;;14.39;27.42;95738.56;6185441;23;20494;-87
2023/04/06 10:50:45;;;;;;;7.55;6.78;;;;;;;14.24;28.06;95731.97;6186419;23;20196;-87
2023/04/06 10:53:22;;;;;;;7.00;6.30;;;;;;;14.05;29.08;95736.06;6188388;23;20174;-86
2023/04/06 10:55:50;;;;;;;6.70;6.10;;;;;;;13.74;29.43;95737.34;6189489;23;20155;-86
2023/04/06 10:58:22;;;;;;;7.35;5.97;;;;;;;13.51;28.98;95731.66;6189008;23;20178;-88
2023/04/06 11:00:49;;;;;;;7.60;6.90;;;;;;;13.36;29.03;95736.94;6184884;23;20748;-85
2023/04/06 11:03:19;;;;;;;7.57;6.75;;;;;;;13.70;28.92;95736.13;6187333;23;20244;-87
2023/04/06 11:05:46;;;;;;;7.03;6.43;;;;;;;14.05;29.32;95736.88;6187843;23;20182;-86
2023/04/06 11:08:25;;;;;;;10.97;9.23;;;;;;;14.27;29.45;95731.56;6188258;23;20638;-88
2023/04/06 11:10:54;;;;;;;22.57;19.87;;;;;;;14.62;29.40;95727.09;6186836;23;20194;-86
2023/04/06 11:13:24;;;;;;;8.80;7.90;;;;;;;14.81;29.54;95713.34;6186944;23;20174;-86
2023/04/06 11:15:51;;;;;;;7.40;6.70;;;;;;;15.02;29.53;95722.69;6185997;23;20198;-87
2023/04/06 11:18:18;;;;;;;7.20;6.53;;;;;;;14.93;28.02;95721.31;6185378;23;20182;-86
2023/04/06 11:20:48;;;;;;;7.50;6.28;;;;;;;14.75;27.31;95712.34;6181346;23;20206;-87
2023/04/06 11:23:27;;;;;;;6.68;6.07;;;;;;;14.68;27.36;95711.53;6184453;23;20170;-88
2023/04/06 11:25:58;;;;;;;7.88;7.07;;;;;;;14.66;27.68;95708.34;6186503;23;20688;-87
2023/04/06 11:28:30;;;;;;;8.57;6.05;;;;;;;14.42;27.83;95704.53;6185339;23;20166;-85
2023/04/06 11:30:59;;;;;;;6.90;6.22;;;;;;;14.47;28.58;95699.53;6186902;23;20248;-86
2023/04/06 11:33:26;;;;;;;6.55;5.95;;;;;;;14.13;28.36;95703.03;6187955;23;20182;-86
2023/04/06 11:35:53;;;;;;;7.28;6.68;;;;;;;14.09;29.33;95695.84;6188202;23;20170;-87
2023/04/06 11:38:20;;;;;;;7.53;6.82;;;;;;;14.22;29.53;95701.09;6187634;23;20182;-86
2023/04/06 11:40:53;;;;;;;7.70;6.97;;;;;;;14.31;29.53;95699.91;6189035;23;20216;-87
2023/04/06 11:43:27;;;;;;;14.13;12.20;;;;;;;14.60;30.01;95701.38;6187058;23;20169;-87